sensor_id;sensor_type;location;lat;lon;timestamp;pressure;altitude;pressure_sealevel;temperature;humidity
79415;BME280;68864;44.972;19.612;2023-07-08T00:02:11;101166.94;;;22.16;62.19
79415;BME280;68864;44.972;19.612;2023-07-08T00:04:38;101164.56;;;22.11;62.86
79415;BME280;68864;44.972;19.612;2023-07-08T00:07:07;101165.38;;;22.12;62.43
79415;BME280;68864;44.972;19.612;2023-07-08T00:09:37;101169.44;;;22.11;61.92
79415;BME280;68864;44.972;19.612;2023-07-08T00:12:07;101173.53;;;22.10;62.08
79415;BME280;68864;44.972;19.612;2023-07-08T00:14:34;101172.72;;;22.09;62.12
79415;BME280;68864;44.972;19.612;2023-07-08T00:17:01;101172.31;;;22.07;62.20
79415;BME280;68864;44.972;19.612;2023-07-08T00:19:29;101173.94;;;22.08;62.53
79415;BME280;68864;44.972;19.612;2023-07-08T00:21:56;101167.91;;;22.06;62.31
79415;BME280;68864;44.972;19.612;2023-07-08T00:24:23;101168.72;;;22.07;62.33
79415;BME280;68864;44.972;19.612;2023-07-08T00:26:50;101172.78;;;22.06;62.54
79415;BME280;68864;44.972;19.612;2023-07-08T00:29:16;101178.47;;;22.06;62.14
79415;BME280;68864;44.972;19.612;2023-07-08T00:31:43;101172.94;;;21.92;62.29
79415;BME280;68864;44.972;19.612;2023-07-08T00:34:10;101176.94;;;21.98;62.61
79415;BME280;68864;44.972;19.612;2023-07-08T00:36:38;101177.38;;;21.96;62.30
79415;BME280;68864;44.972;19.612;2023-07-08T00:39:10;101177.81;;;21.91;62.29
79415;BME280;68864;44.972;19.612;2023-07-08T00:41:39;101175.81;;;21.88;62.55
79415;BME280;68864;44.972;19.612;2023-07-08T00:44:10;101184.41;;;21.85;62.52
79415;BME280;68864;44.972;19.612;2023-07-08T00:46:42;101179.63;;;21.78;62.37
79415;BME280;68864;44.972;19.612;2023-07-08T00:49:25;101175.25;;;21.70;62.99
79415;BME280;68864;44.972;19.612;2023-07-08T00:51:54;101185.38;;;21.71;63.43
79415;BME280;68864;44.972;19.612;2023-07-08T00:54:21;101174.03;;;21.71;62.66
79415;BME280;68864;44.972;19.612;2023-07-08T00:56:48;101179.09;;;21.56;63.40
79415;BME280;68864;44.972;19.612;2023-07-08T00:59:19;101170.91;;;21.62;63.02
79415;BME280;68864;44.972;19.612;2023-07-08T01:01:48;101159.63;;;21.55;62.78
79415;BME280;68864;44.972;19.612;2023-07-08T01:04:18;101176.22;;;21.60;63.17
79415;BME280;68864;44.972;19.612;2023-07-08T01:06:50;101172.50;;;21.63;62.97
79415;BME280;68864;44.972;19.612;2023-07-08T01:09:24;101174.94;;;21.64;62.57
79415;BME280;68864;44.972;19.612;2023-07-08T01:11:54;101162.78;;;21.64;62.67
79415;BME280;68864;44.972;19.612;2023-07-08T01:14:22;101166.84;;;21.63;62.02
79415;BME280;68864;44.972;19.612;2023-07-08T01:16:52;101169.75;;;21.59;61.58
79415;BME280;68864;44.972;19.612;2023-07-08T01:19:20;101173.81;;;21.55;62.00
79415;BME280;68864;44.972;19.612;2023-07-08T01:22:02;101165.78;;;21.50;61.71
79415;BME280;68864;44.972;19.612;2023-07-08T01:24:30;101172.31;;;21.47;62.41
79415;BME280;68864;44.972;19.612;2023-07-08T01:26:58;101174.81;;;21.41;61.66
79415;BME280;68864;44.972;19.612;2023-07-08T01:29:26;101174.47;;;21.35;62.20
79415;BME280;68864;44.972;19.612;2023-07-08T01:31:55;101172.09;;;21.30;62.11
79415;BME280;68864;44.972;19.612;2023-07-08T01:34:22;101174.94;;;21.30;62.28
79415;BME280;68864;44.972;19.612;2023-07-08T01:36:51;101172.56;;;21.25;62.32
79415;BME280;68864;44.972;19.612;2023-07-08T01:39:22;101166.13;;;21.21;62.10
79415;BME280;68864;44.972;19.612;2023-07-08T01:41:49;101174.19;;;21.26;62.61
79415;BME280;68864;44.972;19.612;2023-07-08T01:44:22;101175.00;;;21.27;62.25
79415;BME280;68864;44.972;19.612;2023-07-08T01:46:50;101173.38;;;21.26;61.81
79415;BME280;68864;44.972;19.612;2023-07-08T01:49:20;101166.50;;;21.27;61.57
79415;BME280;68864;44.972;19.612;2023-07-08T01:51:48;101167.28;;;21.27;61.52
79415;BME280;68864;44.972;19.612;2023-07-08T01:54:16;101170.53;;;21.26;61.23
79415;BME280;68864;44.972;19.612;2023-07-08T01:56:44;101167.72;;;21.22;61.82
79415;BME280;68864;44.972;19.612;2023-07-08T01:59:11;101160.91;;;21.16;61.81
79415;BME280;68864;44.972;19.612;2023-07-08T02:01:37;101159.28;;;21.15;61.82
79415;BME280;68864;44.972;19.612;2023-07-08T02:04:04;101153.59;;;21.15;62.49
79415;BME280;68864;44.972;19.612;2023-07-08T02:06:31;101156.06;;;21.17;62.48
79415;BME280;68864;44.972;19.612;2023-07-08T02:08:58;101157.25;;;21.19;62.67
79415;BME280;68864;44.972;19.612;2023-07-08T02:11:25;101164.19;;;21.11;63.38
79415;BME280;68864;44.972;19.612;2023-07-08T02:13:53;101165.00;;;21.12;63.35
79415;BME280;68864;44.972;19.612;2023-07-08T02:16:20;101165.81;;;21.09;63.71
79415;BME280;68864;44.972;19.612;2023-07-08T02:18:46;101162.63;;;21.07;63.26
79415;BME280;68864;44.972;19.612;2023-07-08T02:21:13;101167.50;;;21.06;63.70
79415;BME280;68864;44.972;19.612;2023-07-08T02:23:44;101165.06;;;21.05;64.00
79415;BME280;68864;44.972;19.612;2023-07-08T02:26:10;101169.53;;;21.02;63.67
79415;BME280;68864;44.972;19.612;2023-07-08T02:28:37;101163.88;;;21.02;64.26
79415;BME280;68864;44.972;19.612;2023-07-08T02:31:05;101169.53;;;21.06;63.73
79415;BME280;68864;44.972;19.612;2023-07-08T02:33:32;101173.16;;;21.06;63.74
79415;BME280;68864;44.972;19.612;2023-07-08T02:35:59;101177.28;;;20.98;64.51
79415;BME280;68864;44.972;19.612;2023-07-08T02:38:26;101173.31;;;20.88;64.85
79415;BME280;68864;44.972;19.612;2023-07-08T02:40:53;101179.44;;;20.87;64.61
79415;BME280;68864;44.972;19.612;2023-07-08T02:43:19;101177.84;;;20.82;65.27
79415;BME280;68864;44.972;19.612;2023-07-08T02:45:49;101183.91;;;20.84;65.27
79415;BME280;68864;44.972;19.612;2023-07-08T02:48:18;101189.16;;;20.86;65.36
79415;BME280;68864;44.972;19.612;2023-07-08T02:50:45;101184.69;;;20.85;65.55
79415;BME280;68864;44.972;19.612;2023-07-08T02:53:11;101187.66;;;20.71;66.35
79415;BME280;68864;44.972;19.612;2023-07-08T02:55:38;101190.44;;;20.78;65.72
79415;BME280;68864;44.972;19.612;2023-07-08T02:58:05;101189.72;;;20.67;66.46
79415;BME280;68864;44.972;19.612;2023-07-08T03:00:31;101185.22;;;20.73;65.23
79415;BME280;68864;44.972;19.612;2023-07-08T03:02:59;101190.09;;;20.69;66.31
79415;BME280;68864;44.972;19.612;2023-07-08T03:05:27;101191.31;;;20.71;66.24
79415;BME280;68864;44.972;19.612;2023-07-08T03:07:54;101194.59;;;20.66;66.79
79415;BME280;68864;44.972;19.612;2023-07-08T03:10:21;101199.03;;;20.67;66.82
79415;BME280;68864;44.972;19.612;2023-07-08T03:12:47;101191.72;;;20.70;66.74
79415;BME280;68864;44.972;19.612;2023-07-08T03:15:14;101197.84;;;20.61;67.01
79415;BME280;68864;44.972;19.612;2023-07-08T03:17:41;101201.94;;;20.60;67.24
79415;BME280;68864;44.972;19.612;2023-07-08T03:20:09;101200.28;;;20.62;67.46
79415;BME280;68864;44.972;19.612;2023-07-08T03:22:38;101193.84;;;20.58;67.25
79415;BME280;68864;44.972;19.612;2023-07-08T03:25:06;101203.09;;;20.62;67.48
79415;BME280;68864;44.972;19.612;2023-07-08T03:27:33;101209.97;;;20.65;67.54
79415;BME280;68864;44.972;19.612;2023-07-08T03:29:59;101214.81;;;20.65;67.87
79415;BME280;68864;44.972;19.612;2023-07-08T03:32:26;101220.44;;;20.68;67.58
79415;BME280;68864;44.972;19.612;2023-07-08T03:34:53;101212.00;;;20.65;67.43
79415;BME280;68864;44.972;19.612;2023-07-08T03:37:20;101221.66;;;20.71;67.40
79415;BME280;68864;44.972;19.612;2023-07-08T03:39:48;101224.47;;;20.74;66.99
79415;BME280;68864;44.972;19.612;2023-07-08T03:42:15;101228.91;;;20.75;66.83
79415;BME280;68864;44.972;19.612;2023-07-08T03:44:41;101234.56;;;20.75;66.44
79415;BME280;68864;44.972;19.612;2023-07-08T03:47:08;101227.31;;;20.74;66.61
79415;BME280;68864;44.972;19.612;2023-07-08T03:49:35;101239.84;;;20.73;66.31
79415;BME280;68864;44.972;19.612;2023-07-08T03:52:02;101245.09;;;20.75;66.49
79415;BME280;68864;44.972;19.612;2023-07-08T03:54:29;101252.75;;;20.78;66.39
79415;BME280;68864;44.972;19.612;2023-07-08T03:56:57;101248.72;;;20.79;66.34
79415;BME280;68864;44.972;19.612;2023-07-08T03:59:24;101261.28;;;20.78;66.46
79415;BME280;68864;44.972;19.612;2023-07-08T04:01:50;101262.88;;;20.79;66.52
79415;BME280;68864;44.972;19.612;2023-07-08T04:04:17;101268.56;;;20.79;66.35
79415;BME280;68864;44.972;19.612;2023-07-08T04:06:44;101264.50;;;20.80;66.35
79415;BME280;68864;44.972;19.612;2023-07-08T04:09:11;101269.31;;;20.83;66.38
79415;BME280;68864;44.972;19.612;2023-07-08T04:11:38;101279.03;;;20.85;66.60
79415;BME280;68864;44.972;19.612;2023-07-08T04:14:08;101284.66;;;20.89;66.43
79415;BME280;68864;44.972;19.612;2023-07-08T04:16:46;101282.63;;;20.89;66.97
79415;BME280;68864;44.972;19.612;2023-07-08T04:19:13;101291.13;;;20.93;66.37
79415;BME280;68864;44.972;19.612;2023-07-08T04:21:41;101290.66;;;20.94;66.35
79415;BME280;68864;44.972;19.612;2023-07-08T04:24:09;101285.84;;;20.91;66.30
79415;BME280;68864;44.972;19.612;2023-07-08T04:26:37;101294.25;;;21.02;66.01
79415;BME280;68864;44.972;19.612;2023-07-08T04:29:09;101290.59;;;21.05;66.16
79415;BME280;68864;44.972;19.612;2023-07-08T04:31:39;101302.34;;;21.07;66.11
79415;BME280;68864;44.972;19.612;2023-07-08T04:34:07;101297.44;;;21.11;65.72
79415;BME280;68864;44.972;19.612;2023-07-08T04:36:34;101297.03;;;21.13;65.74
79415;BME280;68864;44.972;19.612;2023-07-08T04:39:00;101288.50;;;21.13;66.07
79415;BME280;68864;44.972;19.612;2023-07-08T04:41:27;101284.47;;;21.14;65.57
79415;BME280;68864;44.972;19.612;2023-07-08T04:43:54;101296.59;;;21.18;65.53
79415;BME280;68864;44.972;19.612;2023-07-08T04:46:29;101288.47;;;21.20;65.91
79415;BME280;68864;44.972;19.612;2023-07-08T04:49:00;101293.72;;;21.21;66.05
79415;BME280;68864;44.972;19.612;2023-07-08T04:51:28;101302.19;;;21.25;65.89
79415;BME280;68864;44.972;19.612;2023-07-08T04:53:55;101295.38;;;21.19;66.39
79415;BME280;68864;44.972;19.612;2023-07-08T04:56:21;101305.78;;;21.29;65.91
79415;BME280;68864;44.972;19.612;2023-07-08T04:58:49;101312.66;;;21.31;66.14
79415;BME280;68864;44.972;19.612;2023-07-08T05:01:16;101304.91;;;21.35;65.99
79415;BME280;68864;44.972;19.612;2023-07-08T05:03:44;101314.69;;;21.31;66.83
79415;BME280;68864;44.972;19.612;2023-07-08T05:06:11;101313.78;;;21.41;66.50
79415;BME280;68864;44.972;19.612;2023-07-08T05:08:37;101310.06;;;21.48;66.39
79415;BME280;68864;44.972;19.612;2023-07-08T05:11:05;101316.94;;;21.50;66.84
79415;BME280;68864;44.972;19.612;2023-07-08T05:13:31;101310.94;;;21.45;67.09
79415;BME280;68864;44.972;19.612;2023-07-08T05:15:58;101310.00;;;21.55;66.61
79415;BME280;68864;44.972;19.612;2023-07-08T05:18:25;101306.31;;;21.58;66.40
79415;BME280;68864;44.972;19.612;2023-07-08T05:20:53;101309.47;;;21.67;66.03
79415;BME280;68864;44.972;19.612;2023-07-08T05:23:21;101308.22;;;21.71;65.63
79415;BME280;68864;44.972;19.612;2023-07-08T05:25:48;101317.13;;;21.73;64.61
79415;BME280;68864;44.972;19.612;2023-07-08T05:28:15;101314.63;;;21.79;63.96
79415;BME280;68864;44.972;19.612;2023-07-08T05:30:41;101310.25;;;21.71;64.79
79415;BME280;68864;44.972;19.612;2023-07-08T05:33:09;101310.56;;;21.76;64.63
79415;BME280;68864;44.972;19.612;2023-07-08T05:35:35;101314.94;;;21.85;65.26
79415;BME280;68864;44.972;19.612;2023-07-08T05:38:04;101312.44;;;21.90;64.94
79415;BME280;68864;44.972;19.612;2023-07-08T05:40:30;101311.16;;;21.95;65.10
79415;BME280;68864;44.972;19.612;2023-07-08T05:42:57;101311.97;;;21.99;65.20
79415;BME280;68864;44.972;19.612;2023-07-08T05:45:24;101313.53;;;22.03;64.66
79415;BME280;68864;44.972;19.612;2023-07-08T05:47:50;101311.44;;;22.07;65.05
79415;BME280;68864;44.972;19.612;2023-07-08T05:50:17;101317.50;;;22.13;64.92
79415;BME280;68864;44.972;19.612;2023-07-08T05:52:44;101311.75;;;22.16;64.59
79415;BME280;68864;44.972;19.612;2023-07-08T05:55:12;101319.38;;;22.23;64.98
79415;BME280;68864;44.972;19.612;2023-07-08T05:57:39;101314.09;;;22.25;65.82
79415;BME280;68864;44.972;19.612;2023-07-08T06:00:07;101318.47;;;22.30;64.93
79415;BME280;68864;44.972;19.612;2023-07-08T06:02:33;101311.16;;;22.32;64.62
79415;BME280;68864;44.972;19.612;2023-07-08T06:05:03;101313.94;;;22.36;64.48
79415;BME280;68864;44.972;19.612;2023-07-08T06:07:30;101317.56;;;22.36;64.03
79415;BME280;68864;44.972;19.612;2023-07-08T06:09:57;101318.72;;;22.42;63.63
79415;BME280;68864;44.972;19.612;2023-07-08T06:12:25;101312.31;;;22.35;64.41
79415;BME280;68864;44.972;19.612;2023-07-08T06:14:52;101315.38;;;22.47;64.19
79415;BME280;68864;44.972;19.612;2023-07-08T06:17:19;101310.09;;;22.49;64.63
79415;BME280;68864;44.972;19.612;2023-07-08T06:19:45;101320.59;;;22.52;64.03
79415;BME280;68864;44.972;19.612;2023-07-08T06:22:12;101325.31;;;22.63;62.71
79415;BME280;68864;44.972;19.612;2023-07-08T06:24:39;101317.28;;;22.57;61.59
79415;BME280;68864;44.972;19.612;2023-07-08T06:27:06;101322.78;;;22.68;62.61
79415;BME280;68864;44.972;19.612;2023-07-08T06:29:34;101324.34;;;22.76;62.35
79415;BME280;68864;44.972;19.612;2023-07-08T06:32:01;101327.06;;;22.83;61.29
79415;BME280;68864;44.972;19.612;2023-07-08T06:34:28;101329.06;;;22.86;61.76
79415;BME280;68864;44.972;19.612;2023-07-08T06:36:55;101322.88;;;22.91;61.96
79415;BME280;68864;44.972;19.612;2023-07-08T06:39:22;101319.13;;;22.98;61.26
79415;BME280;68864;44.972;19.612;2023-07-08T06:41:49;101320.63;;;23.06;61.15
79415;BME280;68864;44.972;19.612;2023-07-08T06:44:15;101318.91;;;23.12;60.07
79415;BME280;68864;44.972;19.612;2023-07-08T06:46:44;101322.06;;;23.18;59.75
79415;BME280;68864;44.972;19.612;2023-07-08T06:49:11;101313.00;;;23.23;59.19
79415;BME280;68864;44.972;19.612;2023-07-08T06:51:38;101318.97;;;23.32;59.51
79415;BME280;68864;44.972;19.612;2023-07-08T06:54:05;101317.16;;;23.42;59.25
79415;BME280;68864;44.972;19.612;2023-07-08T06:56:37;101313.34;;;23.52;58.99
79415;BME280;68864;44.972;19.612;2023-07-08T06:59:04;101310.38;;;23.59;58.49
79415;BME280;68864;44.972;19.612;2023-07-08T07:01:30;101298.41;;;23.67;58.22
79415;BME280;68864;44.972;19.612;2023-07-08T07:03:58;101290.00;;;23.80;58.14
79415;BME280;68864;44.972;19.612;2023-07-08T07:06:26;101299.22;;;23.88;56.66
79415;BME280;68864;44.972;19.612;2023-07-08T07:08:53;101289.53;;;23.85;55.36
79415;BME280;68864;44.972;19.612;2023-07-08T07:11:19;101294.13;;;23.99;56.20
79415;BME280;68864;44.972;19.612;2023-07-08T07:13:46;101292.09;;;23.99;54.14
79415;BME280;68864;44.972;19.612;2023-07-08T07:16:13;101303.16;;;24.13;55.75
79415;BME280;68864;44.972;19.612;2023-07-08T07:18:40;101289.09;;;24.26;54.97
79415;BME280;68864;44.972;19.612;2023-07-08T07:21:08;101291.16;;;24.42;54.34
79415;BME280;68864;44.972;19.612;2023-07-08T07:23:35;101289.88;;;24.63;54.53
79415;BME280;68864;44.972;19.612;2023-07-08T07:26:01;101299.16;;;24.83;53.25
79415;BME280;68864;44.972;19.612;2023-07-08T07:28:28;101296.19;;;25.06;52.89
79415;BME280;68864;44.972;19.612;2023-07-08T07:30:56;101294.88;;;25.40;51.49
79415;BME280;68864;44.972;19.612;2023-07-08T07:33:23;101294.41;;;25.73;51.21
79415;BME280;68864;44.972;19.612;2023-07-08T07:35:50;101291.09;;;26.04;50.52
79415;BME280;68864;44.972;19.612;2023-07-08T07:38:18;101297.56;;;26.33;48.66
79415;BME280;68864;44.972;19.612;2023-07-08T07:40:45;101291.78;;;26.62;48.36
79415;BME280;68864;44.972;19.612;2023-07-08T07:43:11;101296.94;;;26.93;47.93
79415;BME280;68864;44.972;19.612;2023-07-08T07:45:38;101298.03;;;27.20;46.75
79415;BME280;68864;44.972;19.612;2023-07-08T07:48:05;101302.22;;;27.41;46.68
79415;BME280;68864;44.972;19.612;2023-07-08T07:50:32;101287.63;;;27.61;45.52
79415;BME280;68864;44.972;19.612;2023-07-08T07:52:59;101286.78;;;27.95;45.71
79415;BME280;68864;44.972;19.612;2023-07-08T07:55:27;101280.34;;;28.25;43.88
79415;BME280;68864;44.972;19.612;2023-07-08T07:57:54;101287.06;;;28.62;44.22
79415;BME280;68864;44.972;19.612;2023-07-08T08:00:20;101287.72;;;28.97;43.29
79415;BME280;68864;44.972;19.612;2023-07-08T08:02:47;101276.09;;;29.19;42.30
79415;BME280;68864;44.972;19.612;2023-07-08T08:05:14;101282.72;;;29.47;41.79
79415;BME280;68864;44.972;19.612;2023-07-08T08:07:41;101281.28;;;29.88;40.22
79415;BME280;68864;44.972;19.612;2023-07-08T08:10:08;101286.66;;;30.31;39.64
79415;BME280;68864;44.972;19.612;2023-07-08T08:12:36;101281.72;;;30.74;37.77
79415;BME280;68864;44.972;19.612;2023-07-08T08:15:04;101279.13;;;31.18;36.77
79415;BME280;68864;44.972;19.612;2023-07-08T08:17:31;101276.66;;;31.88;35.66
79415;BME280;68864;44.972;19.612;2023-07-08T08:19:57;101274.59;;;32.77;32.71
79415;BME280;68864;44.972;19.612;2023-07-08T08:22:24;101264.50;;;33.82;31.09
79415;BME280;68864;44.972;19.612;2023-07-08T08:24:51;101261.16;;;34.78;29.47
79415;BME280;68864;44.972;19.612;2023-07-08T08:27:18;101259.22;;;35.49;27.19
79415;BME280;68864;44.972;19.612;2023-07-08T08:29:46;101243.78;;;35.91;23.68
79415;BME280;68864;44.972;19.612;2023-07-08T08:32:12;101248.34;;;36.53;24.97
79415;BME280;68864;44.972;19.612;2023-07-08T08:34:39;101254.06;;;37.03;24.35
79415;BME280;68864;44.972;19.612;2023-07-08T08:37:06;101249.47;;;37.42;23.51
79415;BME280;68864;44.972;19.612;2023-07-08T08:39:33;101236.78;;;37.91;22.56
79415;BME280;68864;44.972;19.612;2023-07-08T08:42:00;101238.72;;;38.18;22.78
79415;BME280;68864;44.972;19.612;2023-07-08T08:44:31;101236.09;;;38.50;22.53
79415;BME280;68864;44.972;19.612;2023-07-08T08:47:04;101230.47;;;38.82;21.59
79415;BME280;68864;44.972;19.612;2023-07-08T08:49:39;101226.84;;;39.01;21.76
79415;BME280;68864;44.972;19.612;2023-07-08T08:52:07;101237.84;;;38.89;22.75
79415;BME280;68864;44.972;19.612;2023-07-08T08:54:41;101232.94;;;38.48;20.72
79415;BME280;68864;44.972;19.612;2023-07-08T08:57:18;101241.47;;;38.05;22.91
79415;BME280;68864;44.972;19.612;2023-07-08T08:59:52;101246.25;;;37.56;23.72
79415;BME280;68864;44.972;19.612;2023-07-08T09:02:32;101246.47;;;36.89;21.41
79415;BME280;68864;44.972;19.612;2023-07-08T09:05:03;101244.13;;;36.54;24.07
79415;BME280;68864;44.972;19.612;2023-07-08T09:07:36;101243.31;;;36.15;22.47
79415;BME280;68864;44.972;19.612;2023-07-08T09:10:10;101236.66;;;35.92;22.90
79415;BME280;68864;44.972;19.612;2023-07-08T09:12:40;101239.97;;;35.57;24.53
79415;BME280;68864;44.972;19.612;2023-07-08T09:15:12;101234.97;;;35.04;25.04
79415;BME280;68864;44.972;19.612;2023-07-08T09:17:41;101236.19;;;34.49;25.86
79415;BME280;68864;44.972;19.612;2023-07-08T09:20:19;101232.97;;;34.10;26.77
79415;BME280;68864;44.972;19.612;2023-07-08T09:22:53;101238.41;;;33.77;27.38
79415;BME280;68864;44.972;19.612;2023-07-08T09:25:25;101227.28;;;33.49;29.06
79415;BME280;68864;44.972;19.612;2023-07-08T09:27:54;101232.44;;;33.20;28.79
79415;BME280;68864;44.972;19.612;2023-07-08T09:30:22;101239.38;;;32.93;29.33
79415;BME280;68864;44.972;19.612;2023-07-08T09:32:51;101232.28;;;32.73;28.99
79415;BME280;68864;44.972;19.612;2023-07-08T09:35:19;101234.28;;;32.53;29.63
79415;BME280;68864;44.972;19.612;2023-07-08T09:37:48;101238.41;;;32.31;29.55
79415;BME280;68864;44.972;19.612;2023-07-08T09:40:17;101234.09;;;32.12;28.90
79415;BME280;68864;44.972;19.612;2023-07-08T09:42:48;101223.38;;;31.83;28.62
79415;BME280;68864;44.972;19.612;2023-07-08T09:45:20;101231.59;;;31.61;30.27
79415;BME280;68864;44.972;19.612;2023-07-08T09:47:49;101228.63;;;31.46;31.53
79415;BME280;68864;44.972;19.612;2023-07-08T09:50:21;101226.50;;;31.32;32.45
79415;BME280;68864;44.972;19.612;2023-07-08T09:52:51;101236.53;;;31.22;30.67
79415;BME280;68864;44.972;19.612;2023-07-08T09:55:19;101224.78;;;31.11;32.22
79415;BME280;68864;44.972;19.612;2023-07-08T09:57:48;101221.31;;;30.98;30.87
79415;BME280;68864;44.972;19.612;2023-07-08T10:00:18;101224.03;;;30.92;30.83
79415;BME280;68864;44.972;19.612;2023-07-08T10:02:46;101221.41;;;30.79;30.95
79415;BME280;68864;44.972;19.612;2023-07-08T10:05:20;101228.66;;;30.66;30.59
79415;BME280;68864;44.972;19.612;2023-07-08T10:07:52;101226.16;;;30.59;31.41
79415;BME280;68864;44.972;19.612;2023-07-08T10:10:26;101226.34;;;30.55;32.37
79415;BME280;68864;44.972;19.612;2023-07-08T10:12:56;101225.72;;;30.51;32.72
79415;BME280;68864;44.972;19.612;2023-07-08T10:15:29;101226.06;;;30.44;32.03
79415;BME280;68864;44.972;19.612;2023-07-08T10:17:58;101216.50;;;30.38;31.69
79415;BME280;68864;44.972;19.612;2023-07-08T10:20:29;101216.16;;;30.36;33.23
79415;BME280;68864;44.972;19.612;2023-07-08T10:23:08;101222.06;;;30.32;32.00
79415;BME280;68864;44.972;19.612;2023-07-08T10:25:46;101214.59;;;30.26;30.65
79415;BME280;68864;44.972;19.612;2023-07-08T10:28:28;101217.19;;;30.15;30.04
79415;BME280;68864;44.972;19.612;2023-07-08T10:31:06;101216.56;;;30.11;31.75
79415;BME280;68864;44.972;19.612;2023-07-08T10:33:46;101226.63;;;30.06;31.34
79415;BME280;68864;44.972;19.612;2023-07-08T10:36:28;101219.47;;;30.01;33.04
79415;BME280;68864;44.972;19.612;2023-07-08T10:39:17;101210.22;;;29.97;33.13
79415;BME280;68864;44.972;19.612;2023-07-08T10:41:54;101215.31;;;29.93;31.96
79415;BME280;68864;44.972;19.612;2023-07-08T10:44:28;101211.97;;;29.86;31.33
79415;BME280;68864;44.972;19.612;2023-07-08T10:47:00;101210.56;;;29.63;31.31
79415;BME280;68864;44.972;19.612;2023-07-08T10:49:40;101204.34;;;29.65;31.49
79415;BME280;68864;44.972;19.612;2023-07-08T10:52:30;101202.09;;;29.59;32.21
79415;BME280;68864;44.972;19.612;2023-07-08T10:55:14;101199.41;;;29.56;32.30
79415;BME280;68864;44.972;19.612;2023-07-08T10:58:02;101188.38;;;29.45;32.22
79415;BME280;68864;44.972;19.612;2023-07-08T11:00:40;101180.13;;;29.38;31.54
79415;BME280;68864;44.972;19.612;2023-07-08T11:06:13;101173.72;;;29.25;32.82
79415;BME280;68864;44.972;19.612;2023-07-08T11:08:44;101168.56;;;29.20;32.84
79415;BME280;68864;44.972;19.612;2023-07-08T11:11:24;101170.34;;;29.17;32.63
79415;BME280;68864;44.972;19.612;2023-07-08T11:13:57;101158.38;;;29.10;32.04
79415;BME280;68864;44.972;19.612;2023-07-08T11:16:28;101157.59;;;29.09;31.83
79415;BME280;68864;44.972;19.612;2023-07-08T11:19:02;101163.16;;;29.04;31.63
79415;BME280;68864;44.972;19.612;2023-07-08T11:21:34;101166.19;;;29.00;32.76
79415;BME280;68864;44.972;19.612;2023-07-08T11:24:08;101163.00;;;28.98;32.10
79415;BME280;68864;44.972;19.612;2023-07-08T11:26:43;101158.53;;;28.97;33.70
79415;BME280;68864;44.972;19.612;2023-07-08T11:29:17;101155.81;;;28.94;32.72
79415;BME280;68864;44.972;19.612;2023-07-08T11:31:46;101155.50;;;28.92;33.32
79415;BME280;68864;44.972;19.612;2023-07-08T11:34:15;101153.09;;;28.90;32.57
79415;BME280;68864;44.972;19.612;2023-07-08T11:36:43;101153.25;;;28.87;32.60
79415;BME280;68864;44.972;19.612;2023-07-08T11:42:20;101162.03;;;28.83;33.63
79415;BME280;68864;44.972;19.612;2023-07-08T11:44:51;101144.81;;;28.83;32.39
79415;BME280;68864;44.972;19.612;2023-07-08T11:47:21;101155.63;;;28.79;33.17
79415;BME280;68864;44.972;19.612;2023-07-08T11:49:51;101163.75;;;28.80;33.10
79415;BME280;68864;44.972;19.612;2023-07-08T11:52:21;101158.50;;;28.79;33.07
79415;BME280;68864;44.972;19.612;2023-07-08T11:54:56;101157.50;;;28.73;32.39
79415;BME280;68864;44.972;19.612;2023-07-08T11:57:30;101149.53;;;28.68;33.89
79415;BME280;68864;44.972;19.612;2023-07-08T12:00:15;101145.06;;;28.67;34.08
79415;BME280;68864;44.972;19.612;2023-07-08T12:02:54;101134.84;;;28.66;33.40
79415;BME280;68864;44.972;19.612;2023-07-08T12:05:32;101144.75;;;28.65;32.89
79415;BME280;68864;44.972;19.612;2023-07-08T12:08:01;101137.09;;;28.62;31.82
79415;BME280;68864;44.972;19.612;2023-07-08T12:10:33;101133.88;;;28.60;31.85
79415;BME280;68864;44.972;19.612;2023-07-08T12:13:02;101136.91;;;28.56;32.69
79415;BME280;68864;44.972;19.612;2023-07-08T12:15:31;101127.69;;;28.52;32.31
79415;BME280;68864;44.972;19.612;2023-07-08T12:18:01;101129.41;;;28.50;32.28
79415;BME280;68864;44.972;19.612;2023-07-08T12:20:32;101114.25;;;28.49;32.17
79415;BME280;68864;44.972;19.612;2023-07-08T12:23:00;101108.19;;;28.47;32.62
79415;BME280;68864;44.972;19.612;2023-07-08T12:25:29;101109.81;;;28.48;32.94
79415;BME280;68864;44.972;19.612;2023-07-08T12:27:57;101109.47;;;28.46;33.07
79415;BME280;68864;44.972;19.612;2023-07-08T12:30:28;101102.63;;;28.43;32.09
79415;BME280;68864;44.972;19.612;2023-07-08T12:32:56;101107.56;;;28.43;32.50
79415;BME280;68864;44.972;19.612;2023-07-08T12:35:26;101115.69;;;28.44;33.42
79415;BME280;68864;44.972;19.612;2023-07-08T12:37:56;101116.97;;;28.43;32.54
79415;BME280;68864;44.972;19.612;2023-07-08T12:40:25;101118.69;;;28.41;32.59
79415;BME280;68864;44.972;19.612;2023-07-08T12:42:52;101103.25;;;28.38;32.70
79415;BME280;68864;44.972;19.612;2023-07-08T12:45:20;101107.41;;;28.37;32.99
79415;BME280;68864;44.972;19.612;2023-07-08T12:47:49;101106.59;;;28.37;33.46
79415;BME280;68864;44.972;19.612;2023-07-08T12:50:16;101104.84;;;28.39;33.91
79415;BME280;68864;44.972;19.612;2023-07-08T12:52:44;101099.75;;;28.43;34.54
79415;BME280;68864;44.972;19.612;2023-07-08T12:55:15;101109.97;;;28.44;34.77
79415;BME280;68864;44.972;19.612;2023-07-08T12:57:44;101103.59;;;28.50;34.46